sensor_id;sensor_type;location;lat;lon;timestamp;pressure;altitude;pressure_sealevel;temperature;humidity
56600;BME280;51832;48.152;11.530;2023-02-14T00:04:42;97259.38;;;5.78;68.44
56600;BME280;51832;48.152;11.530;2023-02-14T00:09:44;97254.34;;;6.30;66.71
56600;BME280;51832;48.152;11.530;2023-02-14T00:14:44;97263.13;;;6.29;67.02
56600;BME280;51832;48.152;11.530;2023-02-14T00:20:03;97267.41;;;6.30;67.15
56600;BME280;51832;48.152;11.530;2023-02-14T00:25:04;97269.81;;;5.78;68.25
56600;BME280;51832;48.152;11.530;2023-02-14T00:30:08;97259.06;;;5.63;69.70
56600;BME280;51832;48.152;11.530;2023-02-14T00:35:09;97261.38;;;5.94;68.92
56600;BME280;51832;48.152;11.530;2023-02-14T00:40:10;97249.44;;;5.64;69.62
56600;BME280;51832;48.152;11.530;2023-02-14T00:45:11;97259.91;;;5.82;68.79
56600;BME280;51832;48.152;11.530;2023-02-14T00:50:11;97254.63;;;6.45;67.35
56600;BME280;51832;48.152;11.530;2023-02-14T00:55:12;97259.19;;;6.07;68.10
56600;BME280;51832;48.152;11.530;2023-02-14T01:00:12;97266.06;;;6.08;67.84
56600;BME280;51832;48.152;11.530;2023-02-14T01:05:13;97272.69;;;6.02;68.41
56600;BME280;51832;48.152;11.530;2023-02-14T01:10:13;97272.34;;;6.33;66.89
56600;BME280;51832;48.152;11.530;2023-02-14T01:15:14;97275.63;;;6.53;65.78
56600;BME280;51832;48.152;11.530;2023-02-14T01:20:14;97268.19;;;6.66;65.43
56600;BME280;51832;48.152;11.530;2023-02-14T01:25:15;97264.09;;;6.63;65.08
56600;BME280;51832;48.152;11.530;2023-02-14T01:30:15;97259.44;;;6.57;65.18
56600;BME280;51832;48.152;11.530;2023-02-14T01:35:16;97266.19;;;6.60;65.82
56600;BME280;51832;48.152;11.530;2023-02-14T01:40:16;97266.94;;;6.52;66.50
56600;BME280;51832;48.152;11.530;2023-02-14T01:45:21;97267.63;;;6.80;65.36
56600;BME280;51832;48.152;11.530;2023-02-14T01:50:29;97266.94;;;6.52;66.24
56600;BME280;51832;48.152;11.530;2023-02-14T01:55:35;97267.00;;;6.60;65.23
56600;BME280;51832;48.152;11.530;2023-02-14T02:00:37;97272.47;;;6.49;65.72
56600;BME280;51832;48.152;11.530;2023-02-14T02:06:10;97270.47;;;5.90;67.66
56600;BME280;51832;48.152;11.530;2023-02-14T02:11:13;97268.84;;;5.79;66.69
56600;BME280;51832;48.152;11.530;2023-02-14T02:21:38;97269.56;;;6.34;66.45
56600;BME280;51832;48.152;11.530;2023-02-14T02:27:06;97266.13;;;6.34;65.03
56600;BME280;51832;48.152;11.530;2023-02-14T02:32:36;97258.97;;;6.36;65.08
56600;BME280;51832;48.152;11.530;2023-02-14T02:43:09;97258.06;;;5.92;66.53
56600;BME280;51832;48.152;11.530;2023-02-14T02:48:20;97252.00;;;5.74;67.02
56600;BME280;51832;48.152;11.530;2023-02-14T02:53:33;97246.81;;;5.46;66.69
56600;BME280;51832;48.152;11.530;2023-02-14T02:58:43;97241.59;;;5.64;67.71
56600;BME280;51832;48.152;11.530;2023-02-14T03:03:47;97233.59;;;6.11;66.45
56600;BME280;51832;48.152;11.530;2023-02-14T03:14:25;97235.25;;;6.12;65.71
56600;BME280;51832;48.152;11.530;2023-02-14T03:19:55;97239.78;;;6.10;64.79
56600;BME280;51832;48.152;11.530;2023-02-14T03:30:35;97248.44;;;5.92;65.92
56600;BME280;51832;48.152;11.530;2023-02-14T03:35:57;97246.31;;;5.78;65.92
56600;BME280;51832;48.152;11.530;2023-02-14T03:41:06;97239.63;;;5.48;66.85
56600;BME280;51832;48.152;11.530;2023-02-14T03:46:27;97249.03;;;5.86;65.64
56600;BME280;51832;48.152;11.530;2023-02-14T03:51:31;97251.81;;;5.57;66.37
56600;BME280;51832;48.152;11.530;2023-02-14T03:56:47;97257.59;;;5.51;66.58
56600;BME280;51832;48.152;11.530;2023-02-14T04:06:58;97259.50;;;4.94;68.20
56600;BME280;51832;48.152;11.530;2023-02-14T04:11:59;97253.06;;;5.26;67.34
56600;BME280;51832;48.152;11.530;2023-02-14T04:16:59;97252.84;;;5.64;66.17
56600;BME280;51832;48.152;11.530;2023-02-14T04:22:19;97255.75;;;5.44;66.14
56600;BME280;51832;48.152;11.530;2023-02-14T04:27:19;97256.47;;;4.99;68.08
56600;BME280;51832;48.152;11.530;2023-02-14T04:32:21;97261.16;;;4.95;68.69
56600;BME280;51832;48.152;11.530;2023-02-14T04:37:21;97248.81;;;5.25;66.86
56600;BME280;51832;48.152;11.530;2023-02-14T04:42:22;97256.72;;;5.33;66.21
56600;BME280;51832;48.152;11.530;2023-02-14T04:47:22;97245.47;;;5.05;67.48
56600;BME280;51832;48.152;11.530;2023-02-14T04:52:23;97242.06;;;4.48;68.64
56600;BME280;51832;48.152;11.530;2023-02-14T04:57:23;97233.81;;;4.62;68.21
56600;BME280;51832;48.152;11.530;2023-02-14T05:02:24;97230.72;;;4.86;66.86
56600;BME280;51832;48.152;11.530;2023-02-14T05:07:24;97243.84;;;4.48;68.13
56600;BME280;51832;48.152;11.530;2023-02-14T05:12:25;97227.25;;;4.49;68.58
56600;BME280;51832;48.152;11.530;2023-02-14T05:17:25;97214.28;;;4.76;68.47
56600;BME280;51832;48.152;11.530;2023-02-14T05:22:25;97211.72;;;5.04;66.77
56600;BME280;51832;48.152;11.530;2023-02-14T05:27:26;97217.22;;;8.69;77.15
56600;BME280;51832;48.152;11.530;2023-02-14T05:32:26;97209.78;;;11.40;59.14
56600;BME280;51832;48.152;11.530;2023-02-14T05:37:27;97212.06;;;12.36;53.30
56600;BME280;51832;48.152;11.530;2023-02-14T05:42:27;97211.19;;;10.69;45.70
56600;BME280;51832;48.152;11.530;2023-02-14T05:47:28;97221.16;;;8.57;52.17
56600;BME280;51832;48.152;11.530;2023-02-14T05:52:28;97222.63;;;7.02;56.42
56600;BME280;51832;48.152;11.530;2023-02-14T05:57:29;97230.53;;;6.59;60.38
56600;BME280;51832;48.152;11.530;2023-02-14T06:02:29;97238.44;;;6.05;61.95
56600;BME280;51832;48.152;11.530;2023-02-14T06:07:29;97234.06;;;5.79;61.82
56600;BME280;51832;48.152;11.530;2023-02-14T06:12:30;97243.38;;;5.18;63.74
56600;BME280;51832;48.152;11.530;2023-02-14T06:17:30;97232.22;;;4.89;65.38
56600;BME280;51832;48.152;11.530;2023-02-14T06:22:31;97244.41;;;4.42;68.93
56600;BME280;51832;48.152;11.530;2023-02-14T06:27:32;97250.69;;;4.58;67.76
56600;BME280;51832;48.152;11.530;2023-02-14T06:32:32;97245.59;;;4.57;69.11
56600;BME280;51832;48.152;11.530;2023-02-14T06:37:33;97248.41;;;5.20;66.16
56600;BME280;51832;48.152;11.530;2023-02-14T06:42:33;97244.78;;;5.03;66.81
56600;BME280;51832;48.152;11.530;2023-02-14T06:47:33;97253.19;;;4.97;67.26
56600;BME280;51832;48.152;11.530;2023-02-14T06:52:34;97244.47;;;4.69;67.05
56600;BME280;51832;48.152;11.530;2023-02-14T06:57:34;97236.97;;;4.93;66.92
56600;BME280;51832;48.152;11.530;2023-02-14T07:02:35;97240.72;;;4.81;66.26
56600;BME280;51832;48.152;11.530;2023-02-14T07:07:35;97243.19;;;4.36;69.05
56600;BME280;51832;48.152;11.530;2023-02-14T07:12:36;97244.84;;;4.84;66.45
56600;BME280;51832;48.152;11.530;2023-02-14T07:17:38;97249.09;;;5.22;67.62
56600;BME280;51832;48.152;11.530;2023-02-14T07:22:39;97240.81;;;4.99;68.12
56600;BME280;51832;48.152;11.530;2023-02-14T07:27:39;97239.03;;;4.99;67.48
56600;BME280;51832;48.152;11.530;2023-02-14T07:32:40;97229.28;;;5.02;67.32
56600;BME280;51832;48.152;11.530;2023-02-14T07:37:40;97235.53;;;5.46;66.57
56600;BME280;51832;48.152;11.530;2023-02-14T07:42:42;97223.19;;;5.38;66.23
56600;BME280;51832;48.152;11.530;2023-02-14T07:47:42;97219.53;;;5.04;67.15
56600;BME280;51832;48.152;11.530;2023-02-14T07:52:43;97215.94;;;5.59;64.43
56600;BME280;51832;48.152;11.530;2023-02-14T07:57:46;97219.34;;;5.42;64.82
56600;BME280;51832;48.152;11.530;2023-02-14T08:02:47;97208.31;;;5.21;65.28
56600;BME280;51832;48.152;11.530;2023-02-14T08:07:48;97212.47;;;5.41;65.04
56600;BME280;51832;48.152;11.530;2023-02-14T08:12:49;97197.19;;;5.46;65.13
56600;BME280;51832;48.152;11.530;2023-02-14T08:17:59;97192.72;;;5.74;65.42
56600;BME280;51832;48.152;11.530;2023-02-14T08:22:59;97193.03;;;6.24;62.22
56600;BME280;51832;48.152;11.530;2023-02-14T08:28:01;97191.53;;;6.22;62.18
56600;BME280;51832;48.152;11.530;2023-02-14T08:33:02;97203.34;;;5.72;63.22
56600;BME280;51832;48.152;11.530;2023-02-14T08:38:03;97204.03;;;6.28;61.23
56600;BME280;51832;48.152;11.530;2023-02-14T08:43:04;97200.34;;;6.21;62.24
56600;BME280;51832;48.152;11.530;2023-02-14T08:48:10;97200.06;;;6.75;61.54
56600;BME280;51832;48.152;11.530;2023-02-14T08:53:12;97199.50;;;6.90;60.48
56600;BME280;51832;48.152;11.530;2023-02-14T08:58:12;97199.50;;;6.90;59.92
56600;BME280;51832;48.152;11.530;2023-02-14T09:03:13;97219.78;;;7.22;58.51
56600;BME280;51832;48.152;11.530;2023-02-14T09:08:13;97218.09;;;7.12;58.83
56600;BME280;51832;48.152;11.530;2023-02-14T09:13:14;97224.19;;;7.71;55.32
56600;BME280;51832;48.152;11.530;2023-02-14T09:18:14;97223.06;;;7.82;56.82
56600;BME280;51832;48.152;11.530;2023-02-14T09:23:15;97218.50;;;8.00;55.77
56600;BME280;51832;48.152;11.530;2023-02-14T09:28:16;97206.19;;;7.93;55.84
56600;BME280;51832;48.152;11.530;2023-02-14T09:33:16;97209.50;;;8.27;55.86
56600;BME280;51832;48.152;11.530;2023-02-14T09:38:16;97204.94;;;8.29;55.34
56600;BME280;51832;48.152;11.530;2023-02-14T09:43:27;97204.59;;;8.57;54.30
56600;BME280;51832;48.152;11.530;2023-02-14T09:48:41;97201.50;;;8.37;56.22
56600;BME280;51832;48.152;11.530;2023-02-14T09:59:08;97198.06;;;8.36;56.03
56600;BME280;51832;48.152;11.530;2023-02-14T10:14:54;97198.81;;;8.77;56.78
56600;BME280;51832;48.152;11.530;2023-02-14T10:20:03;97192.22;;;8.98;55.69
56600;BME280;51832;48.152;11.530;2023-02-14T10:25:28;97183.06;;;8.85;56.58
56600;BME280;51832;48.152;11.530;2023-02-14T10:30:37;97183.16;;;9.08;55.58
56600;BME280;51832;48.152;11.530;2023-02-14T10:35:48;97178.97;;;8.75;57.51
56600;BME280;51832;48.152;11.530;2023-02-14T10:46:30;97166.47;;;8.93;55.43
56600;BME280;51832;48.152;11.530;2023-02-14T10:57:01;97159.97;;;8.73;57.95
56600;BME280;51832;48.152;11.530;2023-02-14T11:02:04;97156.50;;;9.19;56.38
56600;BME280;51832;48.152;11.530;2023-02-14T11:07:12;97134.69;;;9.19;55.80
56600;BME280;51832;48.152;11.530;2023-02-14T11:12:30;97126.25;;;8.93;57.72
56600;BME280;51832;48.152;11.530;2023-02-14T11:17:31;97134.03;;;9.71;54.64
56600;BME280;51832;48.152;11.530;2023-02-14T11:22:34;97128.03;;;9.85;53.87
56600;BME280;51832;48.152;11.530;2023-02-14T11:27:34;97121.59;;;9.87;54.63
56600;BME280;51832;48.152;11.530;2023-02-14T11:32:36;97107.63;;;9.87;54.70
56600;BME280;51832;48.152;11.530;2023-02-14T11:37:48;97104.25;;;10.24;53.03
56600;BME280;51832;48.152;11.530;2023-02-14T11:42:49;97098.91;;;10.32;53.37
56600;BME280;51832;48.152;11.530;2023-02-14T11:53:22;97093.97;;;9.46;55.91
56600;BME280;51832;48.152;11.530;2023-02-14T11:58:56;97082.22;;;9.34;57.38
56600;BME280;51832;48.152;11.530;2023-02-14T12:04:02;97073.44;;;9.49;56.75
56600;BME280;51832;48.152;11.530;2023-02-14T12:14:29;97060.06;;;10.19;53.86
56600;BME280;51832;48.152;11.530;2023-02-14T12:20:07;97060.88;;;10.20;53.29
56600;BME280;51832;48.152;11.530;2023-02-14T12:25:19;97051.91;;;11.09;50.68
56600;BME280;51832;48.152;11.530;2023-02-14T12:30:23;97048.00;;;11.41;49.67
56600;BME280;51832;48.152;11.530;2023-02-14T12:35:55;97048.88;;;11.69;49.40
56600;BME280;51832;48.152;11.530;2023-02-14T12:46:23;97039.16;;;11.91;49.06
56600;BME280;51832;48.152;11.530;2023-02-14T13:07:54;97019.88;;;12.53;46.99
56600;BME280;51832;48.152;11.530;2023-02-14T13:13:05;97006.56;;;13.22;44.00
56600;BME280;51832;48.152;11.530;2023-02-14T13:23:30;96997.13;;;13.06;44.77
56600;BME280;51832;48.152;11.530;2023-02-14T13:28:35;96994.00;;;13.50;43.59
56600;BME280;51832;48.152;11.530;2023-02-14T13:33:42;96989.25;;;13.26;48.51
56600;BME280;51832;48.152;11.530;2023-02-14T13:38:50;96983.69;;;14.60;44.57
56600;BME280;51832;48.152;11.530;2023-02-14T13:43:57;96994.56;;;14.18;44.33
56600;BME280;51832;48.152;11.530;2023-02-14T13:53:59;96986.78;;;15.01;39.63
56600;BME280;51832;48.152;11.530;2023-02-14T13:59:05;96985.25;;;15.18;40.50
56600;BME280;51832;48.152;11.530;2023-02-14T14:25:33;96956.50;;;21.64;27.08
56600;BME280;51832;48.152;11.530;2023-02-14T14:30:37;96950.09;;;22.44;26.04
56600;BME280;51832;48.152;11.530;2023-02-14T14:35:51;96951.06;;;25.08;22.10
56600;BME280;51832;48.152;11.530;2023-02-14T14:40:53;96942.34;;;27.43;19.22
56600;BME280;51832;48.152;11.530;2023-02-14T14:45:55;96941.66;;;28.02;18.65
56600;BME280;51832;48.152;11.530;2023-02-14T14:50:57;96946.25;;;28.20;18.48
56600;BME280;51832;48.152;11.530;2023-02-14T14:55:58;96941.22;;;27.63;18.47
56600;BME280;51832;48.152;11.530;2023-02-14T15:00:59;96944.28;;;28.07;18.92
56600;BME280;51832;48.152;11.530;2023-02-14T15:06:18;96941.09;;;28.51;17.50
56600;BME280;51832;48.152;11.530;2023-02-14T15:11:27;96935.78;;;30.18;16.38
56600;BME280;51832;48.152;11.530;2023-02-14T15:16:51;96934.50;;;30.15;16.16
56600;BME280;51832;48.152;11.530;2023-02-14T15:21:52;96930.13;;;27.64;18.23
56600;BME280;51832;48.152;11.530;2023-02-14T15:26:53;96930.75;;;28.67;18.02
56600;BME280;51832;48.152;11.530;2023-02-14T15:31:56;96935.91;;;28.96;17.36
56600;BME280;51832;48.152;11.530;2023-02-14T15:36:59;96930.59;;;31.26;16.51
56600;BME280;51832;48.152;11.530;2023-02-14T15:42:05;96938.72;;;30.30;16.13
56600;BME280;51832;48.152;11.530;2023-02-14T15:47:05;96931.75;;;30.07;15.92
56600;BME280;51832;48.152;11.530;2023-02-14T15:52:06;96941.47;;;28.45;17.52
56600;BME280;51832;48.152;11.530;2023-02-14T15:57:17;96945.03;;;27.05;19.47
56600;BME280;51832;48.152;11.530;2023-02-14T16:02:37;96937.31;;;26.17;19.54
56600;BME280;51832;48.152;11.530;2023-02-14T16:07:39;96943.22;;;23.36;22.70
56600;BME280;51832;48.152;11.530;2023-02-14T16:12:40;96945.63;;;23.22;22.64
56600;BME280;51832;48.152;11.530;2023-02-14T16:17:41;96934.56;;;20.91;25.88
56600;BME280;51832;48.152;11.530;2023-02-14T16:22:43;96939.34;;;19.40;27.74
56600;BME280;51832;48.152;11.530;2023-02-14T16:27:43;96937.59;;;16.84;32.48
56600;BME280;51832;48.152;11.530;2023-02-14T16:32:48;96946.16;;;15.07;36.32
56600;BME280;51832;48.152;11.530;2023-02-14T16:37:50;96945.38;;;13.78;38.56
56600;BME280;51832;48.152;11.530;2023-02-14T16:42:51;96945.84;;;12.81;43.10
56600;BME280;51832;48.152;11.530;2023-02-14T16:47:52;96956.22;;;12.82;43.30
56600;BME280;51832;48.152;11.530;2023-02-14T16:52:52;96955.59;;;12.33;44.30
56600;BME280;51832;48.152;11.530;2023-02-14T16:57:55;96954.31;;;11.60;46.10
56600;BME280;51832;48.152;11.530;2023-02-14T17:02:58;96968.72;;;11.64;46.22
56600;BME280;51832;48.152;11.530;2023-02-14T17:08:11;96966.84;;;11.79;46.27
56600;BME280;51832;48.152;11.530;2023-02-14T17:13:14;96976.59;;;11.57;48.42
56600;BME280;51832;48.152;11.530;2023-02-14T17:18:18;96968.72;;;11.64;46.27
56600;BME280;51832;48.152;11.530;2023-02-14T17:23:19;96973.56;;;11.82;47.23
56600;BME280;51832;48.152;11.530;2023-02-14T17:28:20;96973.47;;;11.04;49.01
56600;BME280;51832;48.152;11.530;2023-02-14T17:33:21;96974.00;;;10.79;48.43
56600;BME280;51832;48.152;11.530;2023-02-14T17:38:22;96973.69;;;10.88;50.86
56600;BME280;51832;48.152;11.530;2023-02-14T17:43:22;96978.53;;;11.06;49.97
56600;BME280;51832;48.152;11.530;2023-02-14T17:48:23;96977.97;;;11.11;49.52
56600;BME280;51832;48.152;11.530;2023-02-14T17:53:23;96978.91;;;10.67;50.42
56600;BME280;51832;48.152;11.530;2023-02-14T17:58:24;96980.03;;;10.43;52.44
56600;BME280;51832;48.152;11.530;2023-02-14T18:03:24;96982.03;;;9.97;53.00
56600;BME280;51832;48.152;11.530;2023-02-14T18:08:33;96972.69;;;9.57;55.41
56600;BME280;51832;48.152;11.530;2023-02-14T18:13:35;96972.06;;;9.55;53.87
56600;BME280;51832;48.152;11.530;2023-02-14T18:18:36;96975.19;;;9.13;57.06
56600;BME280;51832;48.152;11.530;2023-02-14T18:23:37;96963.09;;;9.04;57.90
56600;BME280;51832;48.152;11.530;2023-02-14T18:28:38;96953.50;;;9.34;56.91
56600;BME280;51832;48.152;11.530;2023-02-14T18:33:38;96969.69;;;9.22;56.82
56600;BME280;51832;48.152;11.530;2023-02-14T18:38:40;96956.06;;;9.27;57.68
56600;BME280;51832;48.152;11.530;2023-02-14T18:43:42;96955.22;;;8.81;57.39
56600;BME280;51832;48.152;11.530;2023-02-14T18:48:43;96944.03;;;8.87;59.55
56600;BME280;51832;48.152;11.530;2023-02-14T18:53:45;96954.72;;;8.54;59.92
56600;BME280;51832;48.152;11.530;2023-02-14T18:58:47;96951.28;;;8.77;59.31
56600;BME280;51832;48.152;11.530;2023-02-14T19:03:50;96942.50;;;8.39;60.26
56600;BME280;51832;48.152;11.530;2023-02-14T19:08:52;96947.66;;;8.55;60.29
56600;BME280;51832;48.152;11.530;2023-02-14T19:13:55;96939.59;;;8.87;58.81
56600;BME280;51832;48.152;11.530;2023-02-14T19:18:55;96936.00;;;8.18;60.29
56600;BME280;51832;48.152;11.530;2023-02-14T19:23:57;96934.00;;;7.81;63.57
56600;BME280;51832;48.152;11.530;2023-02-14T19:29:00;96929.25;;;8.24;61.21
56600;BME280;51832;48.152;11.530;2023-02-14T19:34:01;96931.53;;;8.35;60.36
56600;BME280;51832;48.152;11.530;2023-02-14T19:39:02;96926.69;;;8.16;60.89
56600;BME280;51832;48.152;11.530;2023-02-14T19:44:04;96928.00;;;8.51;60.28
56600;BME280;51832;48.152;11.530;2023-02-14T19:49:05;96930.78;;;8.18;60.10
56600;BME280;51832;48.152;11.530;2023-02-14T19:54:06;96922.16;;;7.94;60.84
56600;BME280;51832;48.152;11.530;2023-02-14T19:59:09;96914.78;;;7.97;61.09
56600;BME280;51832;48.152;11.530;2023-02-14T20:04:16;96909.81;;;8.10;60.74
56600;BME280;51832;48.152;11.530;2023-02-14T20:09:17;96912.31;;;7.48;62.68
56600;BME280;51832;48.152;11.530;2023-02-14T20:14:23;96919.00;;;7.43;63.19
56600;BME280;51832;48.152;11.530;2023-02-14T20:19:25;96924.44;;;7.33;63.59
56600;BME280;51832;48.152;11.530;2023-02-14T20:24:29;96910.63;;;7.56;63.24
56600;BME280;51832;48.152;11.530;2023-02-14T20:29:30;96917.53;;;7.40;63.77
56600;BME280;51832;48.152;11.530;2023-02-14T20:34:30;96907.56;;;7.36;62.21
56600;BME280;51832;48.152;11.530;2023-02-14T20:39:33;96907.75;;;7.34;62.95
56600;BME280;51832;48.152;11.530;2023-02-14T20:44:35;96890.22;;;7.51;63.08
56600;BME280;51832;48.152;11.530;2023-02-14T20:49:35;96894.09;;;7.63;61.91
56600;BME280;51832;48.152;11.530;2023-02-14T20:54:37;96894.66;;;7.18;63.77
56600;BME280;51832;48.152;11.530;2023-02-14T20:59:37;96892.03;;;7.34;64.04
56600;BME280;51832;48.152;11.530;2023-02-14T21:04:43;96879.94;;;7.09;62.83
56600;BME280;51832;48.152;11.530;2023-02-14T21:09:44;96880.94;;;6.92;63.85
56600;BME280;51832;48.152;11.530;2023-02-14T21:14:44;96876.47;;;7.25;62.60
56600;BME280;51832;48.152;11.530;2023-02-14T21:19:45;96857.38;;;7.24;62.23
56600;BME280;51832;48.152;11.530;2023-02-14T21:24:45;96873.00;;;7.40;60.97
56600;BME280;51832;48.152;11.530;2023-02-14T21:29:46;96874.88;;;7.07;62.46
56600;BME280;51832;48.152;11.530;2023-02-14T21:34:46;96870.78;;;7.05;62.07
56600;BME280;51832;48.152;11.530;2023-02-14T21:39:47;96862.59;;;7.24;62.11
56600;BME280;51832;48.152;11.530;2023-02-14T21:44:52;96865.03;;;7.26;62.03
56600;BME280;51832;48.152;11.530;2023-02-14T21:50:11;96863.44;;;6.68;64.02
56600;BME280;51832;48.152;11.530;2023-02-14T21:55:30;96853.44;;;6.88;65.18
56600;BME280;51832;48.152;11.530;2023-02-14T22:00:30;96851.13;;;7.17;64.03
56600;BME280;51832;48.152;11.530;2023-02-14T22:05:31;96834.81;;;7.07;63.74
56600;BME280;51832;48.152;11.530;2023-02-14T22:10:31;96834.97;;;6.97;62.90
56600;BME280;51832;48.152;11.530;2023-02-14T22:15:31;96838.09;;;6.60;65.69
56600;BME280;51832;48.152;11.530;2023-02-14T22:20:32;96831.72;;;6.55;65.45
56600;BME280;51832;48.152;11.530;2023-02-14T22:25:32;96831.22;;;6.67;64.86
56600;BME280;51832;48.152;11.530;2023-02-14T22:30:33;96835.13;;;6.88;63.81
56600;BME280;51832;48.152;11.530;2023-02-14T22:35:33;96825.34;;;6.65;64.06
56600;BME280;51832;48.152;11.530;2023-02-14T22:40:34;96824.69;;;6.55;64.81
56600;BME280;51832;48.152;11.530;2023-02-14T22:45:34;96819.13;;;6.91;63.94
56600;BME280;51832;48.152;11.530;2023-02-14T22:50:35;96822.72;;;6.49;64.96
56600;BME280;51832;48.152;11.530;2023-02-14T22:55:35;96819.44;;;6.39;65.50
56600;BME280;51832;48.152;11.530;2023-02-14T23:00:35;96822.03;;;6.15;65.84
56600;BME280;51832;48.152;11.530;2023-02-14T23:05:36;96822.72;;;6.41;65.01
56600;BME280;51832;48.152;11.530;2023-02-14T23:10:36;96824.66;;;6.15;66.96
56600;BME280;51832;48.152;11.530;2023-02-14T23:15:37;96825.28;;;6.17;66.76
56600;BME280;51832;48.152;11.530;2023-02-14T23:20:56;96816.81;;;6.31;66.84
56600;BME280;51832;48.152;11.530;2023-02-14T23:26:18;96809.94;;;6.30;65.68
56600;BME280;51832;48.152;11.530;2023-02-14T23:31:18;96811.03;;;5.95;66.35
56600;BME280;51832;48.152;11.530;2023-02-14T23:36:19;96810.06;;;6.04;66.79
56600;BME280;51832;48.152;11.530;2023-02-14T23:41:19;96809.94;;;6.22;66.11
56600;BME280;51832;48.152;11.530;2023-02-14T23:46:38;96803.09;;;6.37;66.04
56600;BME280;51832;48.152;11.530;2023-02-14T23:51:38;96800.66;;;6.43;65.42
56600;BME280;51832;48.152;11.530;2023-02-14T23:56:39;96789.53;;;6.33;65.50
